createdAt,value
2023-02-28T00:00:53.294Z,0
2023-02-28T00:01:53.272Z,0
2023-02-28T00:02:53.319Z,0
2023-02-28T00:03:53.283Z,0
2023-02-28T00:04:53.284Z,0
2023-02-28T00:05:53.177Z,0
2023-02-28T00:06:52.893Z,0
2023-02-28T00:07:52.858Z,0
2023-02-28T00:08:52.717Z,0
2023-02-28T00:09:52.573Z,0
2023-02-28T00:10:53.053Z,0
2023-02-28T00:11:52.755Z,0
2023-02-28T00:12:52.535Z,0
2023-02-28T00:13:52.777Z,0
2023-02-28T00:14:52.966Z,0
2023-02-28T00:15:52.421Z,0
2023-02-28T00:16:53.321Z,0
2023-02-28T00:17:52.639Z,0
2023-02-28T00:18:52.974Z,0
2023-02-28T00:19:52.609Z,0
2023-02-28T00:20:52.314Z,0
2023-02-28T00:21:52.557Z,0
2023-02-28T00:22:52.796Z,0
2023-02-28T00:23:52.551Z,0
2023-02-28T00:24:52.222Z,0
2023-02-28T00:25:52.605Z,0
2023-02-28T00:26:52.702Z,0
2023-02-28T00:27:52.403Z,0
2023-02-28T00:28:52.638Z,0
2023-02-28T00:29:52.638Z,0
2023-02-28T00:30:52.568Z,0
2023-02-28T00:31:52.526Z,0
2023-02-28T00:32:52.564Z,0
2023-02-28T00:33:52.564Z,0
2023-02-28T00:34:52.574Z,0
2023-02-28T00:35:52.241Z,0
2023-02-28T00:36:52.211Z,0
2023-02-28T00:37:51.931Z,0
2023-02-28T00:38:52.419Z,0
2023-02-28T00:39:52.434Z,0
2023-02-28T00:40:52.398Z,0
2023-02-28T00:41:52.117Z,0
2023-02-28T00:42:52.135Z,0
2023-02-28T00:43:51.807Z,0
2023-02-28T00:44:52.016Z,0
2023-02-28T00:45:51.962Z,0
2023-02-28T00:46:51.749Z,0
2023-02-28T00:47:52.354Z,0
2023-02-28T00:48:52.189Z,0
2023-02-28T00:49:52.176Z,0
2023-02-28T00:50:52.206Z,0
2023-02-28T00:51:52.202Z,0
2023-02-28T00:52:51.853Z,0
2023-02-28T00:53:51.819Z,0
2023-02-28T00:54:51.543Z,0
2023-02-28T00:55:52.025Z,0
2023-02-28T00:56:51.756Z,0
2023-02-28T00:57:52.006Z,0
2023-02-28T00:58:51.692Z,0
2023-02-28T00:59:51.776Z,0
2023-02-28T01:00:51.919Z,0
2023-02-28T01:01:52.276Z,0
2023-02-28T01:02:51.657Z,0
2023-02-28T01:03:51.844Z,0
2023-02-28T01:04:52.063Z,0
2023-02-28T01:05:51.301Z,0
2023-02-28T01:06:51.837Z,0
2023-02-28T01:07:51.235Z,0
2023-02-28T01:08:50.949Z,0
2023-02-28T01:09:51.453Z,0
2023-02-28T01:10:51.689Z,0
2023-02-28T01:11:51.658Z,0
2023-02-28T01:12:51.112Z,0
2023-02-28T01:13:51.085Z,0
2023-02-28T01:14:51.393Z,0
2023-02-28T01:15:51.868Z,0
2023-02-28T01:16:51.304Z,0
2023-02-28T01:17:51.523Z,0
2023-02-28T01:18:51.505Z,0
2023-02-28T01:19:51.227Z,0
2023-02-28T01:20:50.963Z,0
2023-02-28T01:21:51.164Z,0
2023-02-28T01:22:51.476Z,0
2023-02-28T01:23:51.370Z,0
2023-02-28T01:24:53.143Z,0
2023-02-28T01:25:51.245Z,0
2023-02-28T01:26:51.051Z,0
2023-02-28T01:27:51.288Z,0
2023-02-28T01:28:50.758Z,0
2023-02-28T01:29:50.990Z,0
2023-02-28T01:30:51.207Z,0
2023-02-28T01:31:51.293Z,0
2023-02-28T01:32:50.921Z,0
2023-02-28T01:34:23.016Z,0
2023-02-28T01:34:51.176Z,0
2023-02-28T01:35:51.128Z,0
2023-02-28T01:36:50.582Z,0
2023-02-28T01:37:51.077Z,0
2023-02-28T01:38:51.116Z,0
2023-02-28T01:39:51.022Z,0
2023-02-28T01:40:50.751Z,0
2023-02-28T01:41:50.708Z,0
2023-02-28T01:42:50.443Z,0
2023-02-28T01:43:50.663Z,0
2023-02-28T01:44:50.387Z,0
2023-02-28T01:45:50.874Z,0
2023-02-28T01:46:50.687Z,0
2023-02-28T01:47:50.613Z,0
2023-02-28T01:48:50.563Z,0
2023-02-28T01:49:50.559Z,0
2023-02-28T01:50:50.522Z,0
2023-02-28T01:51:50.741Z,0
2023-02-28T01:52:50.515Z,0
2023-02-28T01:53:50.199Z,0
2023-02-28T01:54:50.948Z,0
2023-02-28T01:55:50.820Z,0
2023-02-28T01:56:50.546Z,0
2023-02-28T01:57:50.787Z,0
2023-02-28T01:58:50.592Z,0
2023-02-28T01:59:50.479Z,0
2023-02-28T02:00:50.500Z,0
2023-02-28T02:01:50.836Z,0
2023-02-28T02:02:50.971Z,0
2023-02-28T02:03:50.415Z,0
2023-02-28T02:04:50.106Z,0
2023-02-28T02:05:50.629Z,0
2023-02-28T02:06:50.592Z,0
2023-02-28T02:07:50.054Z,0
2023-02-28T02:08:50.008Z,0
2023-02-28T02:09:49.740Z,0
2023-02-28T02:10:50.687Z,0
2023-02-28T02:11:50.487Z,0
2023-02-28T02:12:50.923Z,0
2023-02-28T02:13:51.438Z,0
2023-02-28T02:14:51.378Z,0
2023-02-28T02:15:51.521Z,0
2023-02-28T02:16:50.833Z,0
2023-02-28T02:17:51.102Z,0
2023-02-28T02:18:51.113Z,0
2023-02-28T02:19:50.756Z,0
2023-02-28T02:20:50.746Z,0
2023-02-28T02:21:51.020Z,0
2023-02-28T02:22:51.215Z,0
2023-02-28T02:23:51.169Z,0
2023-02-28T02:24:51.168Z,0
2023-02-28T02:25:51.169Z,0
2023-02-28T02:26:51.198Z,0
2023-02-28T02:27:50.574Z,0
2023-02-28T02:28:50.543Z,0
2023-02-28T02:29:50.554Z,0
2023-02-28T02:30:50.768Z,0
2023-02-28T02:31:51.633Z,0
2023-02-28T02:32:50.993Z,0
2023-02-28T02:33:50.710Z,0
2023-02-28T02:34:50.937Z,0
2023-02-28T02:35:51.052Z,0
2023-02-28T02:36:50.638Z,0
2023-02-28T02:37:50.619Z,0
2023-02-28T02:38:50.834Z,0
2023-02-28T02:39:50.560Z,0
2023-02-28T02:40:50.786Z,0
2023-02-28T02:41:50.268Z,0
2023-02-28T02:42:50.853Z,0
2023-02-28T02:43:50.482Z,0
2023-02-28T02:44:50.183Z,0
2023-02-28T02:45:50.284Z,0
2023-02-28T02:46:50.720Z,0
2023-02-28T02:47:50.380Z,0
2023-02-28T02:48:50.349Z,0
2023-02-28T02:49:50.582Z,0
2023-02-28T02:50:50.565Z,0
2023-02-28T02:51:50.287Z,0
2023-02-28T02:52:50.537Z,0
2023-02-28T02:53:50.314Z,0
2023-02-28T02:54:49.979Z,0
2023-02-28T02:55:49.934Z,0
2023-02-28T02:56:50.475Z,0
2023-02-28T02:57:50.177Z,0
2023-02-28T02:58:50.602Z,0
2023-02-28T02:59:50.356Z,0
2023-02-28T03:00:50.563Z,0
2023-02-28T03:01:50.042Z,0
2023-02-28T03:02:50.024Z,0
2023-02-28T03:03:50.239Z,0
2023-02-28T03:04:50.254Z,0
2023-02-28T03:05:49.958Z,0
2023-02-28T03:06:49.961Z,0
2023-02-28T03:07:49.647Z,0
2023-02-28T03:08:50.156Z,0
2023-02-28T03:09:50.147Z,0
2023-02-28T03:10:49.883Z,0
2023-02-28T03:11:49.819Z,0
2023-02-28T03:12:49.840Z,0
2023-02-28T03:13:50.033Z,0
2023-02-28T03:14:50.109Z,0
2023-02-28T03:15:49.736Z,0
2023-02-28T03:16:49.990Z,0
2023-02-28T03:17:49.932Z,0
2023-02-28T03:18:49.666Z,0
2023-02-28T03:19:49.644Z,0
2023-02-28T03:20:49.884Z,0
2023-02-28T03:21:49.734Z,0
2023-02-28T03:22:49.574Z,0
2023-02-28T03:23:49.297Z,0
2023-02-28T03:24:49.803Z,0
2023-02-28T03:25:49.550Z,0
2023-02-28T03:26:49.482Z,0
2023-02-28T03:27:49.471Z,0
2023-02-28T03:28:49.695Z,0
2023-02-28T03:29:49.446Z,0
2023-02-28T03:30:49.744Z,0
2023-02-28T03:31:49.856Z,0
2023-02-28T03:32:49.604Z,0
2023-02-28T03:49:39.524Z,0
2023-02-28T03:50:39.132Z,0
2023-02-28T03:51:39.100Z,0
2023-02-28T03:52:38.565Z,0
2023-02-28T03:53:39.089Z,0
2023-02-28T03:54:39.042Z,0
2023-02-28T03:55:38.750Z,0
2023-02-28T03:56:38.738Z,0
2023-02-28T03:57:39.240Z,0
2023-02-28T03:58:39.197Z,0
2023-02-28T03:59:38.933Z,0
2023-02-28T04:00:38.622Z,0
2023-02-28T04:01:39.588Z,0
2023-02-28T04:02:38.846Z,0
2023-02-28T04:03:39.069Z,0
2023-02-28T04:04:39.395Z,0
2023-02-28T04:05:39.128Z,0
2023-02-28T04:06:39.025Z,0
2023-02-28T04:07:38.994Z,0
2023-02-28T04:08:38.700Z,0
2023-02-28T04:09:38.428Z,0
2023-02-28T04:10:38.680Z,0
2023-02-28T04:11:38.795Z,0
2023-02-28T04:12:38.587Z,0
2023-02-28T04:13:38.835Z,0
2023-02-28T04:14:38.296Z,0
2023-02-28T04:15:38.390Z,0
2023-02-28T04:16:43.041Z,0
2023-02-28T04:17:38.526Z,0
2023-02-28T04:18:38.727Z,0
2023-02-28T04:19:38.705Z,0
2023-02-28T04:20:38.151Z,0
2023-02-28T04:21:39.375Z,0
2023-02-28T04:22:38.376Z,0
2023-02-28T04:23:38.616Z,0
2023-02-28T04:24:38.323Z,0
2023-02-28T04:25:38.557Z,0
2023-02-28T04:26:38.886Z,0
2023-02-28T04:27:39.811Z,0
2023-02-28T04:28:38.446Z,0
2023-02-28T04:29:38.747Z,0
2023-02-28T04:30:38.665Z,0
2023-02-28T04:31:38.993Z,0
2023-02-28T04:32:38.656Z,0
2023-02-28T04:33:38.592Z,0
2023-02-28T04:34:38.339Z,0
2023-02-28T04:35:38.593Z,0
2023-02-28T04:36:38.783Z,0
2023-02-28T04:37:38.864Z,0
2023-02-28T04:38:38.467Z,0
2023-02-28T04:39:38.712Z,0
2023-02-28T04:40:38.709Z,0
2023-02-28T04:41:40.028Z,0
2023-02-28T04:42:38.381Z,0
2023-02-28T04:43:38.364Z,0
2023-02-28T04:44:38.635Z,0
2023-02-28T04:45:38.642Z,0
2023-02-28T04:46:38.301Z,0
2023-02-28T04:47:38.540Z,0
2023-02-28T04:48:38.251Z,0
2023-02-28T04:49:38.486Z,0
2023-02-28T04:50:38.182Z,0
2023-02-28T04:51:38.835Z,0
2023-02-28T04:52:38.403Z,0
2023-02-28T04:53:38.494Z,0
2023-02-28T04:54:38.158Z,0
2023-02-28T04:55:38.073Z,0
2023-02-28T04:56:38.334Z,0
2023-02-28T04:57:38.311Z,0
2023-02-28T04:58:38.255Z,0
2023-02-28T04:59:38.010Z,0
2023-02-28T05:00:38.216Z,0
2023-02-28T05:01:39.043Z,0
2023-02-28T05:02:38.526Z,0
2023-02-28T05:03:38.528Z,0
2023-02-28T05:04:38.441Z,0
2023-02-28T05:05:38.494Z,0
2023-02-28T05:06:38.222Z,0
2023-02-28T05:07:37.924Z,0
2023-02-28T05:08:37.902Z,0
2023-02-28T05:09:38.473Z,0
2023-02-28T05:10:38.368Z,0
2023-02-28T05:11:38.913Z,0
2023-02-28T05:12:38.316Z,0
2023-02-28T05:13:38.287Z,0
2023-02-28T05:14:38.283Z,0
2023-02-28T05:15:40.260Z,0
2023-02-28T05:16:38.296Z,0
2023-02-28T05:17:37.692Z,0
2023-02-28T05:18:38.052Z,0
2023-02-28T05:19:37.909Z,0
2023-02-28T05:20:38.155Z,0
2023-02-28T05:21:38.810Z,0
2023-02-28T05:22:38.144Z,0
2023-02-28T05:23:38.094Z,0
2023-02-28T05:24:37.536Z,0
2023-02-28T05:25:38.131Z,0
2023-02-28T05:26:37.479Z,0
2023-02-28T05:27:37.978Z,0
2023-02-28T05:28:37.974Z,4
2023-02-28T05:29:37.933Z,4
2023-02-28T05:30:37.654Z,0
2023-02-28T05:31:38.903Z,0
2023-02-28T05:32:37.875Z,4
2023-02-28T05:33:37.328Z,4
2023-02-28T05:34:37.323Z,4
2023-02-28T05:35:37.925Z,4
2023-02-28T05:36:37.528Z,4
2023-02-28T05:37:37.744Z,8
2023-02-28T05:38:40.204Z,12
2023-02-28T05:39:37.709Z,12
2023-02-28T05:40:37.423Z,16
2023-02-28T05:41:38.286Z,20
2023-02-28T05:42:37.129Z,20
2023-02-28T05:43:37.604Z,28
2023-02-28T05:44:37.603Z,32
2023-02-28T05:45:37.471Z,40
2023-02-28T05:46:37.288Z,48
2023-02-28T05:47:37.304Z,56
2023-02-28T05:48:37.844Z,60
2023-02-28T05:49:37.232Z,76
2023-02-28T05:50:37.200Z,84
2023-02-28T05:51:37.939Z,104
2023-02-28T05:52:37.415Z,120
2023-02-28T05:53:37.398Z,136
2023-02-28T05:54:37.114Z,148
2023-02-28T05:55:37.364Z,156
2023-02-28T05:56:37.066Z,168
2023-02-28T05:57:37.410Z,188
2023-02-28T05:58:37.295Z,204
2023-02-28T05:59:37.267Z,228
2023-02-28T06:00:37.241Z,248
2023-02-28T06:01:37.425Z,272
2023-02-28T06:02:37.315Z,296
2023-02-28T06:03:37.381Z,320
2023-02-28T06:04:39.167Z,348
2023-02-28T06:05:36.347Z,376
2023-02-28T06:06:39.161Z,404
2023-02-28T06:07:36.832Z,436
2023-02-28T06:08:37.053Z,468
2023-02-28T06:09:36.839Z,504
2023-02-28T06:10:36.785Z,544
2023-02-28T06:11:38.495Z,580
2023-02-28T06:12:36.471Z,608
2023-02-28T06:13:37.117Z,628
2023-02-28T06:14:36.949Z,656
2023-02-28T06:15:36.932Z,692
2023-02-28T06:16:37.183Z,724
2023-02-28T06:17:36.845Z,760
2023-02-28T06:18:36.886Z,796
2023-02-28T06:19:36.565Z,824
2023-02-28T06:20:36.844Z,856
2023-02-28T06:21:37.756Z,892
2023-02-28T06:22:36.754Z,924
2023-02-28T06:23:36.455Z,948
2023-02-28T06:24:36.693Z,980
2023-02-28T06:25:36.423Z,1008
2023-02-28T06:26:36.398Z,1040
2023-02-28T06:27:36.415Z,1064
2023-02-28T06:28:36.381Z,1100
2023-02-28T06:29:36.787Z,1128
2023-02-28T06:30:36.350Z,1152
2023-02-28T06:31:37.836Z,1180
2023-02-28T06:32:36.513Z,1208
2023-02-28T06:33:36.241Z,1236
2023-02-28T06:34:36.217Z,1260
2023-02-28T06:35:36.372Z,1284
2023-02-28T06:36:36.460Z,1308
2023-02-28T06:37:36.443Z,1328
2023-02-28T06:38:36.417Z,1352
2023-02-28T06:39:36.088Z,1372
2023-02-28T06:40:36.461Z,1392
2023-02-28T06:41:58.498Z,1428
2023-02-28T06:42:35.772Z,1440
2023-02-28T06:43:36.701Z,1468
2023-02-28T06:44:37.109Z,1488
2023-02-28T06:45:37.202Z,1508
2023-02-28T06:46:37.059Z,1532
2023-02-28T06:47:37.039Z,1552
2023-02-28T06:48:38.967Z,1576
2023-02-28T06:49:36.528Z,1600
2023-02-28T06:50:36.484Z,1620
2023-02-28T06:51:36.885Z,1648
2023-02-28T06:52:37.022Z,1668
2023-02-28T06:53:36.912Z,1688
2023-02-28T06:54:36.927Z,1708
2023-02-28T06:55:38.005Z,1732
2023-02-28T06:56:36.840Z,1748
2023-02-28T06:57:36.139Z,1768
2023-02-28T06:58:36.663Z,1788
2023-02-28T06:59:36.761Z,1808
2023-02-28T07:00:36.557Z,1828
2023-02-28T07:01:38.010Z,1852
2023-02-28T07:02:36.749Z,1868
2023-02-28T07:03:39.215Z,1884
2023-02-28T07:04:37.059Z,1900
2023-02-28T07:05:36.153Z,1920
2023-02-28T07:06:36.633Z,1940
2023-02-28T07:07:36.600Z,1964
2023-02-28T07:08:36.036Z,1980
2023-02-28T07:09:36.532Z,2000
2023-02-28T07:10:36.626Z,2012
2023-02-28T07:11:37.208Z,2028
2023-02-28T07:12:36.261Z,2044
2023-02-28T07:13:35.950Z,2064
2023-02-28T07:14:36.413Z,2080
2023-02-28T07:15:39.326Z,2096
2023-02-28T07:16:36.294Z,2116
2023-02-28T07:17:36.553Z,2128
2023-02-28T07:18:36.335Z,2144
2023-02-28T07:19:35.795Z,2156
2023-02-28T07:20:36.354Z,2172
2023-02-28T07:21:37.081Z,2192
2023-02-28T07:22:35.975Z,2204
2023-02-28T07:23:35.977Z,2224
2023-02-28T07:24:35.941Z,2240
2023-02-28T07:25:35.919Z,2252
2023-02-28T07:26:35.541Z,2264
2023-02-28T07:27:35.872Z,2276
2023-02-28T07:28:35.606Z,2288
2023-02-28T07:29:35.610Z,2296
2023-02-28T07:30:35.554Z,2308
2023-02-28T07:31:37.003Z,2320
2023-02-28T07:32:36.074Z,2332
2023-02-28T07:33:36.121Z,2348
2023-02-28T07:34:35.698Z,2356
2023-02-28T07:35:36.105Z,2368
2023-02-28T07:36:35.904Z,2380
2023-02-28T07:37:35.888Z,2388
2023-02-28T07:38:35.878Z,2404
2023-02-28T07:39:35.615Z,2420
2023-02-28T07:40:35.837Z,2428
2023-02-28T07:41:36.591Z,2440
2023-02-28T07:42:35.566Z,2448
2023-02-28T07:43:35.235Z,2456
2023-02-28T07:44:35.240Z,2464
2023-02-28T07:45:35.528Z,2472
2023-02-28T07:46:38.744Z,2480
2023-02-28T07:47:35.153Z,2488
2023-02-28T07:48:35.663Z,2500
2023-02-28T07:49:35.722Z,2508
2023-02-28T07:50:35.665Z,2516
2023-02-28T07:51:36.193Z,2532
2023-02-28T07:52:35.566Z,2540
2023-02-28T07:53:35.584Z,2556
2023-02-28T07:54:35.524Z,2568
2023-02-28T07:55:34.751Z,2572
2023-02-28T07:56:35.830Z,2576
2023-02-28T07:57:35.445Z,2584
2023-02-28T07:58:35.424Z,2596
2023-02-28T07:59:37.322Z,2612
2023-02-28T08:00:35.495Z,2624
2023-02-28T08:01:36.544Z,2640
2023-02-28T08:02:35.338Z,2660
2023-02-28T08:03:35.318Z,2672
2023-02-28T08:04:35.201Z,2692
2023-02-28T08:05:35.376Z,2708
2023-02-28T08:06:35.242Z,2724
2023-02-28T08:07:34.983Z,2748
2023-02-28T08:08:34.718Z,2768
2023-02-28T08:09:34.665Z,2796
2023-02-28T08:10:34.931Z,2828
2023-02-28T08:11:35.661Z,2856
2023-02-28T08:12:34.964Z,2876
2023-02-28T08:13:35.114Z,2872
2023-02-28T08:14:34.808Z,2872
2023-02-28T08:15:34.793Z,2876
2023-02-28T08:16:35.254Z,2896
2023-02-28T08:17:37.510Z,2912
2023-02-28T08:18:34.995Z,2920
2023-02-28T08:19:34.717Z,2916
2023-02-28T08:20:34.942Z,2932
2023-02-28T08:21:36.014Z,2964
2023-02-28T08:22:34.889Z,2980
2023-02-28T08:23:34.865Z,3008
2023-02-28T08:24:34.362Z,3028
2023-02-28T08:25:34.825Z,3052
2023-02-28T08:26:34.860Z,3076
2023-02-28T08:27:34.823Z,3076
2023-02-28T08:28:34.777Z,3096
2023-02-28T08:29:34.741Z,3112
2023-02-28T08:30:34.227Z,3124
2023-02-28T08:31:35.559Z,3112
2023-02-28T08:32:37.604Z,3108
2023-02-28T08:33:34.142Z,3104
2023-02-28T08:34:33.863Z,3104
2023-02-28T08:35:34.474Z,3108
2023-02-28T08:36:34.951Z,3108
2023-02-28T08:37:34.744Z,3124
2023-02-28T08:38:34.550Z,3132
2023-02-28T08:39:34.264Z,3148
2023-02-28T08:40:34.302Z,3144
2023-02-28T08:41:34.950Z,3144
2023-02-28T08:42:34.213Z,3136
2023-02-28T08:43:34.248Z,3144
2023-02-28T08:44:34.172Z,3140
2023-02-28T08:45:34.684Z,3152
2023-02-28T08:46:34.415Z,3156
2023-02-28T08:47:34.368Z,3160
2023-02-28T08:48:34.360Z,3168
2023-02-28T08:49:34.304Z,3176
2023-02-28T08:50:34.347Z,3180
2023-02-28T08:51:35.372Z,3168
2023-02-28T08:52:33.993Z,3176
2023-02-28T08:53:34.398Z,3192
2023-02-28T08:54:33.948Z,3216
2023-02-28T08:55:34.215Z,3224
2023-02-28T08:56:34.500Z,3216
2023-02-28T08:57:33.967Z,3212
2023-02-28T08:58:33.953Z,3204
2023-02-28T08:59:33.910Z,3208
2023-02-28T09:00:34.435Z,3200
2023-02-28T09:01:35.840Z,3208
2023-02-28T09:02:33.870Z,3220
2023-02-28T09:03:34.637Z,3240
2023-02-28T09:04:34.170Z,3252
2023-02-28T09:05:34.039Z,3276
2023-02-28T09:06:35.172Z,3308
2023-02-28T09:07:33.735Z,3344
2023-02-28T09:08:33.745Z,3380
2023-02-28T09:09:34.317Z,3408
2023-02-28T09:10:34.228Z,3460
2023-02-28T09:11:33.659Z,3496
2023-02-28T09:12:33.656Z,3520
2023-02-28T09:13:33.630Z,3524
2023-02-28T09:14:34.109Z,3564
2023-02-28T09:15:34.089Z,3612
2023-02-28T09:16:34.170Z,3584
2023-02-28T09:17:38.310Z,3688
2023-02-28T09:18:33.786Z,3748
2023-02-28T09:19:33.787Z,3788
2023-02-28T09:20:33.998Z,3844
2023-02-28T09:21:34.849Z,3904
2023-02-28T09:22:33.965Z,3940
2023-02-28T09:23:33.434Z,3960
2023-02-28T09:24:34.636Z,3984
2023-02-28T09:25:34.000Z,4040
2023-02-28T09:26:56.693Z,4084
2023-02-28T09:27:33.338Z,4088
2023-02-28T09:28:33.816Z,4180
2023-02-28T09:29:33.574Z,4212
2023-02-28T09:30:33.989Z,4184
2023-02-28T09:31:33.525Z,4224
2023-02-28T09:32:33.980Z,4216
2023-02-28T09:33:33.458Z,4232
2023-02-28T09:34:34.040Z,4172
2023-02-28T09:35:33.221Z,4132
2023-02-28T09:36:51.862Z,4192
2023-02-28T09:37:33.636Z,3872
2023-02-28T09:38:33.694Z,4148
2023-02-28T09:39:33.691Z,4076
2023-02-28T09:40:33.312Z,4056
2023-02-28T09:41:33.725Z,3752
2023-02-28T09:42:33.568Z,4340
2023-02-28T09:43:33.021Z,4276
2023-02-28T09:44:33.513Z,3956
2023-02-28T09:45:33.223Z,3752
2023-02-28T09:46:34.086Z,4260
2023-02-28T09:47:33.469Z,4256
2023-02-28T09:48:33.418Z,4264
2023-02-28T09:49:33.395Z,4436
2023-02-28T09:50:33.130Z,4400
2023-02-28T09:51:34.222Z,4464
2023-02-28T09:52:33.364Z,3616
2023-02-28T09:53:33.065Z,3408
2023-02-28T09:54:33.308Z,3252
2023-02-28T09:55:47.016Z,4304
2023-02-28T09:56:34.067Z,3784
2023-02-28T09:57:33.346Z,3272
2023-02-28T09:58:33.234Z,3140
2023-02-28T09:59:32.695Z,3248
2023-02-28T10:00:32.969Z,3220
2023-02-28T10:01:34.413Z,3360
2023-02-28T10:02:33.151Z,3728
2023-02-28T10:03:33.167Z,3804
2023-02-28T10:04:32.770Z,3860
2023-02-28T10:05:32.861Z,4320
2023-02-28T10:06:32.551Z,4740
2023-02-28T10:07:33.054Z,5228
2023-02-28T10:08:32.817Z,5772
2023-02-28T10:09:32.775Z,6332
2023-02-28T10:10:32.767Z,7072
2023-02-28T10:11:33.777Z,8088
2023-02-28T10:12:32.989Z,6968
2023-02-28T10:13:33.025Z,6852
2023-02-28T10:14:32.671Z,9852
2023-02-28T10:15:33.147Z,10760
2023-02-28T10:16:33.807Z,11564
2023-02-28T10:17:34.499Z,11872
2023-02-28T10:18:32.430Z,10756
2023-02-28T10:19:32.316Z,12304
2023-02-28T10:20:32.569Z,12412
2023-02-28T10:21:32.807Z,12504
2023-02-28T10:22:32.813Z,12324
2023-02-28T10:23:32.757Z,11740
2023-02-28T10:24:32.744Z,11604
2023-02-28T10:25:32.769Z,11632
2023-02-28T10:26:33.433Z,12376
2023-02-28T10:27:32.444Z,12640
2023-02-28T10:28:32.660Z,12976
2023-02-28T10:29:32.983Z,13020
2023-02-28T10:30:32.620Z,12884
2023-02-28T10:31:33.781Z,10556
2023-02-28T10:32:32.531Z,10764
2023-02-28T10:33:32.514Z,10896
2023-02-28T10:34:32.536Z,11044
2023-02-28T10:35:32.516Z,10224
2023-02-28T10:36:35.280Z,9140
2023-02-28T10:37:32.727Z,8240
2023-02-28T10:38:32.466Z,8088
2023-02-28T10:39:32.703Z,7384
2023-02-28T10:40:32.694Z,7020
2023-02-28T10:41:32.676Z,8400
2023-02-28T10:42:32.510Z,7616
2023-02-28T10:43:32.149Z,7152
2023-02-28T10:44:32.353Z,6412
2023-02-28T10:45:32.730Z,6200
2023-02-28T10:46:33.661Z,6192
2023-02-28T10:47:32.312Z,5588
2023-02-28T10:48:32.550Z,5308
2023-02-28T10:49:32.285Z,5392
2023-02-28T10:50:32.261Z,5212
2023-02-28T10:51:32.235Z,5084
2023-02-28T10:52:32.210Z,4832
2023-02-28T10:53:32.908Z,3780
2023-02-28T10:54:32.270Z,3252
2023-02-28T10:55:32.414Z,3104
2023-02-28T10:56:33.056Z,4268
2023-02-28T10:57:32.156Z,3644
2023-02-28T10:58:32.210Z,3936
2023-02-28T10:59:32.132Z,4672
2023-02-28T11:00:32.339Z,4728
2023-02-28T11:01:33.482Z,4448
2023-02-28T11:02:32.051Z,3700
2023-02-28T11:03:32.338Z,3308
2023-02-28T11:04:32.126Z,3276
2023-02-28T11:05:31.773Z,3128
2023-02-28T11:06:32.875Z,2996
2023-02-28T11:07:55.602Z,4304
2023-02-28T11:08:31.937Z,4580
2023-02-28T11:09:32.218Z,4548
2023-02-28T11:10:32.216Z,4556
2023-02-28T11:11:33.572Z,4512
2023-02-28T11:12:32.612Z,4560
2023-02-28T11:13:31.827Z,4504
2023-02-28T11:14:31.824Z,3820
2023-02-28T11:15:32.081Z,3392
2023-02-28T11:16:31.811Z,3292
2023-02-28T11:17:32.148Z,4676
2023-02-28T11:18:32.029Z,5104
2023-02-28T11:19:31.492Z,5768
2023-02-28T11:20:31.787Z,4972
2023-02-28T11:21:32.632Z,4876
2023-02-28T11:22:32.235Z,5912
2023-02-28T11:23:31.935Z,6684
2023-02-28T11:24:31.886Z,8336
2023-02-28T11:25:31.911Z,9276
2023-02-28T11:26:31.606Z,9340
2023-02-28T11:27:31.581Z,6988
2023-02-28T11:28:31.564Z,5336
2023-02-28T11:29:31.354Z,4672
2023-02-28T11:30:31.895Z,4260
2023-02-28T11:31:32.669Z,4168
2023-02-28T11:32:31.971Z,5080
2023-02-28T11:33:31.833Z,5712
2023-02-28T11:34:31.490Z,6872
2023-02-28T11:35:31.679Z,7684
2023-02-28T11:36:31.689Z,8292
2023-02-28T11:37:31.148Z,6948
2023-02-28T11:38:31.379Z,7712
2023-02-28T11:39:31.608Z,7588
2023-02-28T11:40:31.356Z,6732
2023-02-28T11:41:31.979Z,5548
2023-02-28T11:42:31.283Z,5008
2023-02-28T11:43:31.263Z,4836
2023-02-28T11:44:31.511Z,4712
2023-02-28T11:45:31.351Z,4732
2023-02-28T11:46:31.633Z,4784
2023-02-28T11:47:31.194Z,4712
2023-02-28T11:48:31.234Z,4664
2023-02-28T11:49:31.516Z,4616
2023-02-28T11:50:30.903Z,4572
2023-02-28T11:51:31.429Z,4260
2023-02-28T11:52:31.113Z,3756
2023-02-28T11:53:32.260Z,4396
2023-02-28T11:54:31.336Z,4012
2023-02-28T11:55:31.341Z,4700
2023-02-28T11:56:31.064Z,6132
2023-02-28T11:57:31.033Z,7048
2023-02-28T11:58:31.271Z,6268
2023-02-28T11:59:31.231Z,6864
2023-02-28T12:00:31.222Z,6500
2023-02-28T12:01:31.891Z,6276
2023-02-28T12:02:31.324Z,5300
2023-02-28T12:03:31.375Z,6076
2023-02-28T12:04:31.145Z,6524
2023-02-28T12:05:31.283Z,7972
2023-02-28T12:06:30.870Z,7756
2023-02-28T12:07:30.609Z,6472
2023-02-28T12:08:31.067Z,6856
2023-02-28T12:09:30.801Z,6408
2023-02-28T12:10:30.794Z,6128
2023-02-28T12:11:31.750Z,5580
2023-02-28T12:12:32.596Z,4804
2023-02-28T12:13:30.987Z,4656
2023-02-28T12:14:30.715Z,5300
2023-02-28T12:15:30.725Z,5424
2023-02-28T12:16:31.260Z,5532
2023-02-28T12:17:30.656Z,4612
2023-02-28T12:18:30.722Z,4092
2023-02-28T12:19:30.358Z,3828
2023-02-28T12:20:30.638Z,3308
2023-02-28T12:21:31.649Z,3872
2023-02-28T12:22:30.560Z,3496
2023-02-28T12:23:30.595Z,3980
2023-02-28T12:24:30.833Z,4168
2023-02-28T12:25:30.511Z,4160
2023-02-28T12:26:30.543Z,3352
2023-02-28T12:27:32.898Z,3468
2023-02-28T12:28:29.937Z,4016
2023-02-28T12:29:30.502Z,4176
2023-02-28T12:30:30.462Z,4292
2023-02-28T12:31:31.564Z,4176
2023-02-28T12:32:31.230Z,4244
2023-02-28T12:33:31.472Z,4652
2023-02-28T12:34:30.108Z,5100
2023-02-28T12:35:30.582Z,5756
2023-02-28T12:36:30.303Z,5684
2023-02-28T12:37:30.691Z,5620
2023-02-28T12:38:30.438Z,4956
2023-02-28T12:39:39.045Z,4600
2023-02-28T12:40:30.212Z,4320
2023-02-28T12:41:30.976Z,3832
2023-02-28T12:42:30.006Z,3796
2023-02-28T12:43:30.448Z,3748
2023-02-28T12:44:30.163Z,3856
2023-02-28T12:45:30.370Z,3880
2023-02-28T12:46:30.933Z,3804
2023-02-28T12:47:30.402Z,3800
2023-02-28T12:48:30.106Z,4084
2023-02-28T12:49:30.058Z,4452
2023-02-28T12:50:30.299Z,4616
2023-02-28T12:51:31.125Z,4308
2023-02-28T12:52:29.989Z,3792
2023-02-28T12:53:30.347Z,3524
2023-02-28T12:54:30.214Z,3512
2023-02-28T12:55:29.953Z,3612
2023-02-28T12:56:31.652Z,3632
2023-02-28T12:57:29.385Z,3164
2023-02-28T12:58:30.142Z,3404
2023-02-28T12:59:29.889Z,3276
2023-02-28T13:00:29.836Z,3216
2023-02-28T13:01:31.181Z,3192
2023-02-28T13:02:30.126Z,3184
2023-02-28T13:03:29.832Z,3156
2023-02-28T13:04:29.798Z,3152
2023-02-28T13:05:30.019Z,3144
2023-02-28T13:06:29.736Z,3144
2023-02-28T13:07:29.973Z,3136
2023-02-28T13:08:29.701Z,3152
2023-02-28T13:09:30.029Z,3140
2023-02-28T13:10:29.930Z,3136
2023-02-28T13:11:29.896Z,3116
2023-02-28T13:12:29.863Z,3084
2023-02-28T13:13:29.897Z,3092
2023-02-28T13:14:29.824Z,3088
2023-02-28T13:15:29.553Z,3060
2023-02-28T13:16:29.422Z,3032
2023-02-28T13:17:29.266Z,3012
2023-02-28T13:18:29.791Z,3000
2023-02-28T13:19:29.473Z,2996
2023-02-28T13:20:30.036Z,2984
2023-02-28T13:21:31.059Z,2968
2023-02-28T13:22:30.012Z,2964
2023-02-28T13:23:29.973Z,2944
2023-02-28T13:24:29.957Z,2924
2023-02-28T13:25:30.410Z,2916
2023-02-28T13:26:30.182Z,2920
2023-02-28T13:27:30.201Z,2916
2023-02-28T13:28:29.888Z,2920
2023-02-28T13:29:29.867Z,2916
2023-02-28T13:30:30.155Z,2904
2023-02-28T13:31:30.710Z,2900
2023-02-28T13:32:30.158Z,2912
2023-02-28T13:33:29.909Z,2896
2023-02-28T13:34:30.027Z,2900
2023-02-28T13:35:29.815Z,2920
2023-02-28T13:36:29.736Z,2952
2023-02-28T13:37:30.116Z,2976
2023-02-28T13:38:29.771Z,2972
2023-02-28T13:39:29.720Z,2960
2023-02-28T13:40:29.665Z,2908
2023-02-28T13:41:30.827Z,2880
2023-02-28T13:42:29.624Z,2876
2023-02-28T13:43:43.020Z,2860
2023-02-28T13:44:29.699Z,2840
2023-02-28T13:45:29.563Z,2820
2023-02-28T13:46:29.824Z,2808
2023-02-28T13:47:29.339Z,2800
2023-02-28T13:48:29.558Z,2792
2023-02-28T13:49:29.529Z,2788
2023-02-28T13:50:29.777Z,2788
2023-02-28T13:51:31.905Z,2780
2023-02-28T13:52:28.981Z,2764
2023-02-28T13:53:29.458Z,2748
2023-02-28T13:54:28.925Z,2732
2023-02-28T13:55:29.679Z,2716
2023-02-28T13:56:30.542Z,2708
2023-02-28T13:57:29.771Z,2704
2023-02-28T13:58:29.641Z,2704
2023-02-28T13:59:29.602Z,2692
2023-02-28T14:00:29.344Z,2692
2023-02-28T14:01:30.218Z,2696
2023-02-28T14:02:29.566Z,2692
2023-02-28T14:03:29.549Z,2688
2023-02-28T14:04:30.484Z,2672
2023-02-28T14:05:29.265Z,2672
2023-02-28T14:06:29.339Z,2676
2023-02-28T14:07:29.666Z,2680